Time;durP1;ratioP1;P1;durP2;ratioP2;P2;SDS_P1;SDS_P2;PMS_P1;PMS_P2;Temp;Humidity;BMP_temperature;BMP_pressure;BME280_temperature;BME280_humidity;BME280_pressure;Samples;Min_cycle;Max_cycle;Signal;HPM_P1;HPM_P2
2021/06/14 00:01:34;;;;;;;4.53;2.15;;;;;;;14.79;85.43;99518.05;1703881;84;21607;-75
2021/06/14 00:04:03;;;;;;;3.72;1.98;;;;;;;14.74;85.24;99515.30;1704073;84;21446;-75
2021/06/14 00:06:32;;;;;;;4.45;2.10;;;;;;;14.71;85.32;99523.46;1704221;84;21125;-76
2021/06/14 00:09:02;;;;;;;7.87;2.85;;;;;;;14.67;85.69;99522.80;1704146;84;21292;-75
2021/06/14 00:11:30;;;;;;;5.25;2.67;;;;;;;14.67;85.81;99528.09;1703839;84;21109;-75
2021/06/14 00:13:58;;;;;;;6.15;2.75;;;;;;;14.66;85.92;99525.08;1703888;82;21557;-75
2021/06/14 00:16:27;;;;;;;4.30;2.10;;;;;;;14.65;86.26;99520.26;1703596;84;21550;-75
2021/06/14 00:18:54;;;;;;;5.25;2.22;;;;;;;14.65;86.43;99520.26;1704125;84;21121;-76
2021/06/14 00:21:21;;;;;;;11.73;3.00;;;;;;;14.65;86.72;99528.66;1703855;84;21057;-74
2021/06/14 00:23:49;;;;;;;6.75;2.40;;;;;;;14.62;86.65;99532.84;1703793;83;21081;-75
2021/06/14 00:26:17;;;;;;;5.12;2.40;;;;;;;14.58;86.70;99528.20;1704236;84;21156;-75
2021/06/14 00:28:44;;;;;;;3.00;1.55;;;;;;;14.56;86.93;99534.54;1704373;84;21125;-74
2021/06/14 00:31:11;;;;;;;5.30;2.40;;;;;;;14.54;87.11;99537.31;1721505;82;21011;-75
2021/06/14 00:33:39;;;;;;;4.42;1.67;;;;;;;14.53;87.45;99531.58;1733924;82;21649;-74
2021/06/14 00:36:06;;;;;;;4.97;2.50;;;;;;;14.52;87.64;99534.35;1733413;82;21061;-73
2021/06/14 00:38:34;;;;;;;3.65;2.35;;;;;;;14.52;87.91;99534.35;1733106;82;21522;-73
2021/06/14 00:41:01;;;;;;;5.92;2.40;;;;;;;14.51;88.15;99532.62;1733286;82;21007;-72
2021/06/14 00:43:30;;;;;;;3.90;2.50;;;;;;;14.48;88.41;99533.67;1733284;81;21164;-72
2021/06/14 00:45:57;;;;;;;3.80;2.25;;;;;;;14.46;88.56;99532.92;1733510;82;21541;-73
2021/06/14 00:48:25;;;;;;;3.85;2.70;;;;;;;14.47;88.79;99535.48;1733304;82;21109;-72
2021/06/14 00:50:56;;;;;;;4.95;2.37;;;;;;;14.46;89.07;99532.92;1733249;82;21138;-73
2021/06/14 00:53:37;;;;;;;4.45;2.50;;;;;;;14.44;89.17;99529.03;1692930;82;21540;-73
2021/06/14 00:56:11;;;;;;;3.67;2.40;;;;;;;14.43;89.40;99528.66;1689368;84;21073;-75
2021/06/14 00:58:40;;;;;;;4.15;2.62;;;;;;;14.42;89.37;99528.30;1689203;83;21104;-75
2021/06/14 01:01:08;;;;;;;3.47;2.47;;;;;;;14.41;89.55;99527.91;1689360;82;21152;-75
2021/06/14 01:03:37;;;;;;;5.05;2.85;;;;;;;14.40;89.57;99525.34;1689312;82;21144;-75
2021/06/14 01:06:07;;;;;;;4.58;2.42;;;;;;;14.36;89.72;99524.70;1689299;82;21068;-73
2021/06/14 01:08:37;;;;;;;6.47;2.55;;;;;;;14.32;90.02;99527.16;1689362;83;21073;-75
2021/06/14 01:11:50;;;;;;;5.72;2.72;;;;;;;14.28;90.11;99525.64;1689361;84;21094;-75
2021/06/14 01:14:46;;;;;;;10.30;2.85;;;;;;;14.27;90.20;99530.09;1689352;84;21101;-74
2021/06/14 01:17:28;;;;;;;7.35;3.15;;;;;;;14.26;90.38;99531.05;1689142;84;21888;-75
2021/06/14 01:20:38;;;;;;;4.15;2.50;;;;;;;14.26;90.29;99531.50;1668947;84;21045;-75
2021/06/14 01:23:44;;;;;;;3.52;2.42;;;;;;;14.24;90.38;99534.27;1718744;82;21101;-75
2021/06/14 01:26:21;;;;;;;5.08;3.10;;;;;;;14.26;90.62;99531.50;1705047;83;21046;-77
2021/06/14 01:28:55;;;;;;;3.58;2.80;;;;;;;14.28;90.61;99538.40;1721935;82;21085;-76
2021/06/14 01:31:26;;;;;;;4.85;2.55;;;;;;;14.25;90.48;99529.81;1707701;82;21156;-75
2021/06/14 01:33:56;;;;;;;3.00;2.70;;;;;;;14.28;90.55;99538.88;1731818;82;21167;-74
2021/06/14 01:36:30;;;;;;;3.45;2.60;;;;;;;14.27;90.48;99537.19;1668463;85;21182;-78
2021/06/14 01:38:57;;;;;;;5.67;3.22;;;;;;;14.27;90.53;99537.19;1726875;82;21083;-77
2021/06/14 01:41:26;;;;;;;4.28;2.70;;;;;;;14.25;90.65;99533.30;1708074;82;21085;-76
2021/06/14 01:43:54;;;;;;;4.92;2.72;;;;;;;14.28;91.03;99541.53;1721068;82;21112;-76
2021/06/14 01:46:25;;;;;;;3.33;2.77;;;;;;;14.29;90.78;99539.28;1724126;82;21139;-77
2021/06/14 01:48:54;;;;;;;;;;;;;;;14.30;90.55;99543.61;1723333;82;21054;-78
2021/06/14 01:51:25;;;;;;;6.75;3.30;;;;;;;14.30;90.52;99548.91;1710346;82;20512;-78
2021/06/14 01:54:05;;;;;;;4.50;3.20;;;;;;;14.28;90.48;99558.74;1729339;82;21066;-77
2021/06/14 01:56:38;;;;;;;5.90;3.15;;;;;;;14.28;90.46;99556.09;1729110;82;21871;-76
2021/06/14 01:59:15;;;;;;;7.80;3.22;;;;;;;14.26;90.42;99558.86;1721980;81;21093;-76
2021/06/14 02:01:45;;;;;;;4.08;2.92;;;;;;;14.27;90.58;99553.08;1714224;81;21723;-76
2021/06/14 02:04:13;;;;;;;4.53;3.15;;;;;;;14.28;90.46;99557.42;1746036;81;21043;-76
2021/06/14 02:06:48;;;;;;;3.70;2.85;;;;;;;14.28;90.38;99570.19;1725803;81;21616;-76
2021/06/14 02:09:19;;;;;;;3.77;3.02;;;;;;;14.28;90.34;99565.36;1717221;81;21069;-73
2021/06/14 02:12:00;;;;;;;4.35;3.00;;;;;;;14.29;90.48;99571.06;1747368;81;21047;-75
2021/06/14 02:14:32;;;;;;;5.00;3.30;;;;;;;14.31;90.60;99574.47;1751964;81;21001;-74
2021/06/14 02:17:05;;;;;;;4.17;3.42;;;;;;;14.32;90.61;99573.51;1748141;81;21124;-75
2021/06/14 02:19:31;;;;;;;5.05;3.40;;;;;;;14.32;90.74;99573.98;1744804;81;21126;-74
2021/06/14 02:22:00;;;;;;;9.28;3.45;;;;;;;14.33;90.61;99579.17;1743961;81;21134;-74
2021/06/14 02:24:28;;;;;;;7.05;3.00;;;;;;;14.34;90.41;99574.27;1746137;81;21061;-75
2021/06/14 02:26:55;;;;;;;6.37;3.17;;;;;;;14.35;90.13;99580.41;1752004;81;21611;-75
2021/06/14 02:29:22;;;;;;;4.37;3.30;;;;;;;14.33;89.82;99577.84;1689121;84;21114;-73
2021/06/14 02:31:51;;;;;;;7.80;3.40;;;;;;;14.34;89.56;99582.22;1694265;83;21085;-75
2021/06/14 02:34:18;;;;;;;5.28;3.33;;;;;;;14.34;89.31;99580.89;1696298;83;21092;-74
2021/06/14 02:36:46;;;;;;;3.95;3.40;;;;;;;14.36;89.35;99576.36;1705511;83;21058;-74
2021/06/14 02:39:15;;;;;;;4.72;3.47;;;;;;;14.40;89.26;99584.95;1718606;83;21064;-73
2021/06/14 02:41:44;;;;;;;6.92;3.35;;;;;;;14.40;88.93;99577.88;1689770;84;21099;-74
2021/06/14 02:44:11;;;;;;;5.58;3.33;;;;;;;14.42;88.80;99581.28;1696532;83;21105;-75
2021/06/14 02:46:44;;;;;;;7.78;3.72;;;;;;;14.45;88.79;99583.73;1695540;83;21362;-73
2021/06/14 02:49:14;;;;;;;5.55;3.87;;;;;;;14.48;88.62;99586.66;1717183;83;21171;-74
2021/06/14 02:51:42;;;;;;;7.58;4.10;;;;;;;14.52;88.39;99589.98;1660795;84;21101;-74
2021/06/14 02:54:17;;;;;;;5.78;3.80;;;;;;;14.56;88.08;99591.51;1686822;84;21091;-73
2021/06/14 02:56:51;;;;;;;7.50;3.98;;;;;;;14.54;87.80;99577.05;1690242;83;27947;-73
2021/06/14 02:59:18;;;;;;;7.10;3.80;;;;;;;14.61;87.58;99586.80;1708777;83;21946;-74
2021/06/14 03:01:48;;;;;;;5.28;3.67;;;;;;;14.66;87.31;99586.03;1669244;85;21092;-74
2021/06/14 03:04:16;;;;;;;4.67;3.58;;;;;;;14.71;87.04;99598.52;1671041;85;21052;-74
2021/06/14 03:06:45;;;;;;;6.03;3.58;;;;;;;14.76;87.04;99596.42;1670137;85;21139;-74
2021/06/14 03:09:13;;;;;;;4.30;3.70;;;;;;;14.79;86.89;99598.90;1688701;84;22108;-74
2021/06/14 03:11:42;;;;;;;5.40;3.40;;;;;;;14.81;85.98;99602.28;1670628;84;21153;-74
2021/06/14 03:14:13;;;;;;;6.35;3.47;;;;;;;14.79;86.09;99598.90;1669481;85;21079;-75
2021/06/14 03:16:42;;;;;;;5.50;3.60;;;;;;;14.82;86.05;99601.83;1688244;84;21080;-75
2021/06/14 03:19:11;;;;;;;5.58;3.58;;;;;;;14.83;85.82;99605.69;1691516;84;21563;-77
2021/06/14 03:21:38;;;;;;;4.50;3.25;;;;;;;14.87;86.10;99604.55;1689803;84;21056;-74
2021/06/14 03:24:06;;;;;;;5.53;3.60;;;;;;;14.91;86.12;99605.23;1669221;84;21877;-74
2021/06/14 03:26:39;;;;;;;5.08;3.72;;;;;;;14.97;85.92;99600.84;1693425;84;21080;-75
2021/06/14 03:29:09;;;;;;;4.78;3.60;;;;;;;15.02;85.53;99605.39;1690437;84;21110;-75
2021/06/14 03:31:38;;;;;;;4.22;3.37;;;;;;;15.06;84.73;99606.03;1674347;84;21489;-76
2021/06/14 03:34:05;;;;;;;7.10;3.85;;;;;;;15.08;85.07;99606.79;1671079;85;21025;-75
2021/06/14 03:36:32;;;;;;;6.78;3.67;;;;;;;15.12;84.87;99608.30;1671443;84;22428;-74
2021/06/14 03:39:00;;;;;;;4.65;3.37;;;;;;;15.15;84.88;99613.88;1671585;85;21128;-77
2021/06/14 03:41:27;;;;;;;6.22;3.58;;;;;;;15.20;85.04;99619.73;1672092;84;21030;-77
2021/06/14 03:43:54;;;;;;;8.93;3.80;;;;;;;15.25;84.79;99617.63;1672482;84;21068;-79
2021/06/14 03:46:21;;;;;;;4.62;3.60;;;;;;;15.28;84.15;99619.63;1673110;85;21076;-78
2021/06/14 03:48:48;;;;;;;7.37;3.65;;;;;;;15.30;83.81;99615.08;1671977;84;21239;-78
2021/06/14 03:51:16;;;;;;;6.85;3.90;;;;;;;15.34;84.15;99620.17;1671974;85;21012;-77
2021/06/14 03:53:56;;;;;;;6.15;3.80;;;;;;;15.39;83.51;99618.06;1672910;85;21036;-76
2021/06/14 03:56:12;;;;;;;5.08;3.15;;;;;;;15.46;83.25;99611.41;1679012;84;21089;-79
2021/06/14 03:58:40;;;;;;;5.85;3.40;;;;;;;15.57;83.22;99621.33;1685831;85;21046;-78
2021/06/14 04:01:07;;;;;;;4.05;3.05;;;;;;;15.72;83.17;99621.20;1678709;85;21768;-77
2021/06/14 04:03:34;;;;;;;4.30;3.12;;;;;;;15.88;82.84;99614.88;1697711;84;21038;-78
2021/06/14 04:06:02;;;;;;;7.33;2.85;;;;;;;16.10;81.64;99620.44;1672775;85;21045;-82
2021/06/14 04:08:31;;;;;;;5.17;3.10;;;;;;;16.33;80.50;99624.63;1674372;85;21102;-70
2021/06/14 04:10:59;;;;;;;6.62;3.25;;;;;;;16.56;80.39;99630.55;1684033;84;21100;-76
2021/06/14 04:13:28;;;;;;;7.17;3.80;;;;;;;16.80;78.28;99631.63;1661607;85;21091;-73
2021/06/14 04:15:55;;;;;;;5.72;3.45;;;;;;;17.02;77.63;99637.58;1663860;85;21071;-74
2021/06/14 04:18:23;;;;;;;6.72;3.45;;;;;;;17.17;75.39;99632.50;1663648;85;21064;-72
2021/06/14 04:20:50;;;;;;;5.37;3.15;;;;;;;17.29;74.28;99634.75;1672432;85;21124;-70
2021/06/14 04:23:17;;;;;;;6.97;3.58;;;;;;;17.37;73.95;99637.23;1665194;85;21108;-71
2021/06/14 04:25:45;;;;;;;6.65;3.37;;;;;;;17.52;74.11;99634.39;1685663;84;21619;-70
2021/06/14 04:28:12;;;;;;;5.97;3.80;;;;;;;17.69;72.85;99632.67;1666629;85;21080;-73
2021/06/14 04:30:38;;;;;;;7.20;3.30;;;;;;;17.78;72.77;99635.98;1680137;85;21599;-74
2021/06/14 04:33:06;;;;;;;5.55;3.50;;;;;;;17.84;72.21;99639.18;1677939;85;21122;-71
2021/06/14 04:35:34;;;;;;;11.60;3.22;;;;;;;17.87;72.38;99646.92;1666675;85;21040;-72
2021/06/14 04:38:01;;;;;;;9.80;3.10;;;;;;;17.89;72.22;99646.34;1661224;85;21122;-71
2021/06/14 04:40:28;;;;;;;5.75;3.62;;;;;;;17.94;71.73;99645.50;1670184;85;21662;-71
2021/06/14 04:42:56;;;;;;;8.00;3.65;;;;;;;17.98;71.69;99649.64;1665832;85;21662;-71
2021/06/14 04:45:23;;;;;;;6.20;3.58;;;;;;;18.02;70.88;99648.45;1658584;85;21144;-70
2021/06/14 04:47:50;;;;;;;6.70;3.40;;;;;;;18.07;71.36;99654.27;1673505;84;21153;-71
2021/06/14 04:50:17;;;;;;;9.90;3.75;;;;;;;18.15;70.86;99653.67;1683800;84;21110;-72
2021/06/14 04:52:44;;;;;;;5.72;2.70;;;;;;;18.30;70.41;99661.00;1686708;84;21170;-71
2021/06/14 04:55:12;;;;;;;9.18;3.02;;;;;;;18.34;70.30;99662.47;1691230;84;21512;-71
2021/06/14 04:57:39;;;;;;;5.78;3.25;;;;;;;18.41;70.36;99667.70;1689522;83;21072;-71
2021/06/14 05:00:08;;;;;;;6.25;2.95;;;;;;;18.51;69.75;99659.34;1689087;83;21150;-71
2021/06/14 05:02:35;;;;;;;5.20;3.12;;;;;;;18.77;70.16;99656.48;1670659;84;21176;-71
2021/06/14 05:05:04;;;;;;;4.58;3.27;;;;;;;19.19;67.92;99660.73;1703669;83;22073;-71
2021/06/14 05:07:32;;;;;;;6.30;3.00;;;;;;;19.50;67.20;99662.59;1676288;84;21167;-71
2021/06/14 05:09:59;;;;;;;7.50;3.00;;;;;;;19.83;65.44;99666.65;1671099;84;21123;-71
2021/06/14 05:13:38;;;;;;;4.72;2.90;;;;;;;20.05;64.08;99672.41;1789795;79;22780;-72
2021/06/14 05:16:06;;;;;;;5.20;3.50;;;;;;;20.02;64.60;99686.03;1725108;83;21033;-70
2021/06/14 05:18:34;;;;;;;12.33;3.87;;;;;;;19.99;64.03;99683.59;1725154;83;21132;-71
2021/06/14 05:21:01;;;;;;;4.65;3.45;;;;;;;19.84;64.79;99681.23;1725478;83;21021;-71
2021/06/14 05:23:29;;;;;;;7.00;3.90;;;;;;;19.75;65.29;99693.17;1725780;81;21037;-71
2021/06/14 05:25:56;;;;;;;6.55;3.22;;;;;;;19.75;65.84;99687.33;1725634;82;21095;-72
2021/06/14 05:28:23;;;;;;;10.58;3.62;;;;;;;19.82;65.94;99693.86;1725543;83;21108;-72
2021/06/14 05:30:50;;;;;;;7.53;3.40;;;;;;;19.80;65.88;99690.47;1721251;81;21139;-73
2021/06/14 05:33:17;;;;;;;4.58;3.50;;;;;;;19.81;66.45;99686.84;1724647;83;20965;-74
2021/06/14 05:35:45;;;;;;;9.03;3.55;;;;;;;19.93;66.30;99690.31;1725508;81;21057;-72
2021/06/14 05:38:12;;;;;;;6.95;4.22;;;;;;;20.09;65.92;99688.55;1724136;82;21537;-73
2021/06/14 05:40:39;;;;;;;7.08;4.33;;;;;;;20.17;65.44;99691.41;1725446;82;21048;-72
2021/06/14 05:43:07;;;;;;;6.95;4.20;;;;;;;20.12;65.83;99690.95;1717515;82;21096;-72
2021/06/14 05:45:34;;;;;;;5.67;4.17;;;;;;;20.15;66.13;99691.19;1722395;83;21010;-72
2021/06/14 05:48:01;;;;;;;6.75;4.12;;;;;;;20.30;65.87;99686.73;1708887;83;21125;-73
2021/06/14 05:50:28;;;;;;;5.12;3.50;;;;;;;20.54;65.54;99686.95;1725408;83;21014;-72
2021/06/14 05:52:55;;;;;;;3.87;3.42;;;;;;;20.77;64.90;99692.19;1724663;83;21060;-73
2021/06/14 05:55:22;;;;;;;7.10;4.30;;;;;;;21.12;63.80;99699.34;1719778;81;21895;-74
2021/06/14 05:57:49;;;;;;;6.25;3.65;;;;;;;21.45;61.77;99695.18;1725155;83;21100;-73
2021/06/14 06:00:18;;;;;;;5.83;4.50;;;;;;;21.65;61.41;99700.06;1724892;82;21053;-74
2021/06/14 06:02:45;;;;;;;4.70;3.50;;;;;;;21.86;60.76;99699.48;1719961;81;21072;-73
2021/06/14 06:05:13;;;;;;;7.05;3.85;;;;;;;22.09;60.46;99695.19;1728590;81;21084;-75
2021/06/14 06:07:41;;;;;;;6.40;3.60;;;;;;;22.40;59.49;99702.59;1732970;81;21132;-72
2021/06/14 06:10:12;;;;;;;5.30;3.60;;;;;;;22.58;58.66;99704.06;1723483;82;21057;-74
2021/06/14 06:12:40;;;;;;;6.45;3.47;;;;;;;22.57;58.63;99706.41;1690770;83;21061;-74
2021/06/14 06:15:14;;;;;;;4.05;3.37;;;;;;;22.52;58.31;99705.97;1706204;83;21565;-72
2021/06/14 06:17:42;;;;;;;4.37;3.22;;;;;;;22.46;58.87;99706.56;1712870;82;21065;-73
2021/06/14 06:20:13;;;;;;;8.03;3.70;;;;;;;22.53;58.52;99710.36;1712707;82;21241;-73
2021/06/14 06:22:40;;;;;;;7.92;3.52;;;;;;;22.71;58.24;99706.45;1712133;82;21037;-73
2021/06/14 06:25:16;;;;;;;9.03;3.10;;;;;;;22.94;57.50;99706.95;1712125;83;22030;-73
2021/06/14 06:27:44;;;;;;;5.05;3.87;;;;;;;23.22;56.72;99710.03;1711712;83;21497;-72
2021/06/14 06:30:13;;;;;;;7.42;3.85;;;;;;;23.53;55.57;99715.09;1703102;82;21069;-74
2021/06/14 06:32:40;;;;;;;3.85;2.83;;;;;;;23.63;54.32;99717.75;1710341;82;21755;-73
2021/06/14 06:35:09;;;;;;;8.13;3.37;;;;;;;23.76;54.93;99718.74;1705115;82;21089;-74
2021/06/14 06:37:37;;;;;;;6.42;2.87;;;;;;;23.94;53.39;99720.95;1710516;82;21026;-74
2021/06/14 06:40:06;;;;;;;6.50;3.35;;;;;;;23.92;53.87;99721.59;1709939;82;21002;-74
2021/06/14 06:42:34;;;;;;;5.05;3.20;;;;;;;24.10;53.82;99720.27;1712042;82;21105;-73
2021/06/14 06:45:01;;;;;;;7.08;3.00;;;;;;;24.31;52.24;99725.33;1712410;82;21133;-74
2021/06/14 06:47:28;;;;;;;6.87;3.08;;;;;;;24.42;52.48;99721.55;1712396;83;22104;-72
2021/06/14 06:49:55;;;;;;;4.67;3.30;;;;;;;24.52;52.26;99721.48;1709758;82;21069;-72
2021/06/14 06:52:23;;;;;;;5.97;3.20;;;;;;;24.69;51.39;99726.00;1712012;82;21069;-73
2021/06/14 06:54:50;;;;;;;4.17;2.95;;;;;;;24.76;51.36;99728.41;1712659;82;21024;-75
2021/06/14 06:57:17;;;;;;;5.67;3.35;;;;;;;24.94;50.98;99730.19;1709469;83;21120;-76
2021/06/14 06:59:44;;;;;;;4.75;3.00;;;;;;;25.02;51.17;99730.24;1712357;82;21070;-75
2021/06/14 07:02:11;;;;;;;8.15;3.65;;;;;;;25.12;51.18;99728.27;1712241;82;21587;-76
2021/06/14 07:04:39;;;;;;;4.75;3.05;;;;;;;25.28;50.85;99737.84;1712207;83;21528;-76
2021/06/14 07:07:06;;;;;;;4.05;3.35;;;;;;;25.47;50.25;99733.20;1696906;83;21049;-74
2021/06/14 07:09:34;;;;;;;4.35;2.77;;;;;;;25.58;49.90;99736.08;1709162;82;21114;-75
2021/06/14 07:12:01;;;;;;;7.22;3.17;;;;;;;25.59;48.44;99738.62;1712263;82;20991;-75
2021/06/14 07:14:28;;;;;;;5.40;3.12;;;;;;;25.60;48.74;99747.04;1723451;82;21054;-74
2021/06/14 07:16:55;;;;;;;4.47;2.60;;;;;;;25.66;49.05;99743.70;1724962;83;21528;-74
2021/06/14 07:19:22;;;;;;;4.37;2.50;;;;;;;25.68;48.14;99749.78;1709302;83;21539;-74
2021/06/14 07:21:49;;;;;;;5.08;3.50;;;;;;;25.74;48.88;99755.01;1712524;83;21050;-74
2021/06/14 07:24:16;;;;;;;6.95;2.37;;;;;;;25.81;48.78;99761.95;1722099;83;21154;-74
2021/06/14 07:26:44;;;;;;;4.12;2.98;;;;;;;25.93;49.08;99760.68;1723279;83;21097;-74
2021/06/14 07:29:12;;;;;;;6.95;2.98;;;;;;;26.26;48.11;99768.83;1723680;82;21053;-76
2021/06/14 07:31:39;;;;;;;7.50;3.15;;;;;;;26.36;47.68;99768.14;1714470;82;21156;-75
2021/06/14 07:34:08;;;;;;;7.58;3.10;;;;;;;26.43;47.51;99774.56;1717960;81;21124;-76
2021/06/14 07:36:35;;;;;;;5.47;3.00;;;;;;;26.21;48.20;99773.89;1719392;81;21048;-74
2021/06/14 07:39:05;;;;;;;8.20;2.90;;;;;;;26.09;48.82;99775.55;1716459;83;21084;-75
2021/06/14 07:41:32;;;;;;;5.55;3.45;;;;;;;26.12;49.13;99775.72;1714967;82;21552;-74
2021/06/14 07:43:59;;;;;;;5.42;2.80;;;;;;;26.38;48.75;99780.97;1719614;83;21081;-75
2021/06/14 07:46:26;;;;;;;3.77;2.72;;;;;;;26.85;48.18;99777.64;1719255;83;21137;-75
2021/06/14 07:48:53;;;;;;;5.80;2.62;;;;;;;27.36;45.85;99776.88;1724572;81;21069;-76
2021/06/14 07:51:22;;;;;;;4.80;2.62;;;;;;;27.54;46.59;99770.41;1724359;83;21104;-75
2021/06/14 07:53:50;;;;;;;6.75;3.47;;;;;;;27.89;46.09;99775.00;1721116;83;21559;-75
2021/06/14 07:56:22;;;;;;;6.40;2.90;;;;;;;28.27;44.39;99773.73;1724980;81;21074;-74
2021/06/14 07:58:47;;;;;;;4.58;2.50;;;;;;;28.35;42.49;99780.45;1719818;83;21221;-74
2021/06/14 08:01:16;;;;;;;5.00;2.83;;;;;;;28.44;44.02;99775.31;1718789;83;21548;-74
2021/06/14 08:03:42;;;;;;;8.88;2.55;;;;;;;28.60;43.33;99776.56;1723928;83;21041;-75
2021/06/14 08:06:10;;;;;;;3.02;2.40;;;;;;;28.68;43.54;99774.80;1724838;83;21116;-75
2021/06/14 08:08:39;;;;;;;3.20;2.30;;;;;;;28.92;42.66;99780.48;1707238;82;21158;-74
2021/06/14 08:11:07;;;;;;;5.65;3.08;;;;;;;29.13;41.65;99778.47;1724203;83;21155;-76
2021/06/14 08:13:35;;;;;;;5.37;2.92;;;;;;;29.12;41.51;99786.26;1716332;82;21221;-75
2021/06/14 08:16:08;;;;;;;3.60;2.72;;;;;;;28.74;42.22;99790.33;1706867;83;21061;-76
2021/06/14 08:26:38;;;;;;;5.10;2.62;;;;;;;28.68;43.17;99786.47;1711331;82;21049;-71
2021/06/14 08:29:05;;;;;;;4.15;2.67;;;;;;;28.58;41.88;99792.14;1707549;83;21588;-72
2021/06/14 08:31:34;;;;;;;4.78;2.83;;;;;;;28.35;42.60;99791.28;1706313;83;21104;-72
2021/06/14 08:34:00;;;;;;;3.65;2.50;;;;;;;28.40;43.20;99796.48;1709149;83;21156;-71
2021/06/14 08:36:30;;;;;;;3.80;2.50;;;;;;;28.52;42.62;99792.03;1708926;82;21547;-71
2021/06/14 08:38:58;;;;;;;3.27;2.33;;;;;;;28.56;42.47;99805.02;1707025;82;21089;-71
2021/06/14 08:41:26;;;;;;;5.90;2.92;;;;;;;28.50;43.54;99802.20;1707340;83;21074;-72
2021/06/14 08:43:56;;;;;;;4.42;2.52;;;;;;;28.61;42.54;99806.67;1705596;83;21125;-72
2021/06/14 08:46:24;;;;;;;2.67;2.40;;;;;;;28.85;43.23;99811.58;1709781;82;21022;-72
2021/06/14 08:48:51;;;;;;;4.55;2.77;;;;;;;29.10;41.41;99805.94;1711179;82;21957;-73
2021/06/14 08:51:19;;;;;;;4.53;2.85;;;;;;;29.18;41.44;99814.00;1709544;83;21093;-72
2021/06/14 08:53:51;;;;;;;3.02;2.60;;;;;;;28.93;41.83;99820.97;1711209;82;21062;-72
2021/06/14 08:56:16;;;;;;;3.80;2.87;;;;;;;28.38;42.72;99820.19;1711051;83;21105;-72
2021/06/14 08:58:43;;;;;;;6.35;2.95;;;;;;;27.85;44.13;99825.07;1711976;83;21041;-71
2021/06/14 09:01:12;;;;;;;3.65;2.70;;;;;;;27.54;46.03;99837.50;1712186;82;21938;-72
2021/06/14 09:03:39;;;;;;;3.98;2.37;;;;;;;27.58;46.27;99840.69;1709338;83;21042;-72
2021/06/14 09:06:06;;;;;;;5.25;2.40;;;;;;;27.80;45.57;99837.23;1707478;83;21038;-71
2021/06/14 09:08:34;;;;;;;3.35;2.55;;;;;;;28.09;45.10;99838.49;1709656;83;21061;-70
2021/06/14 09:11:01;;;;;;;9.10;2.40;;;;;;;28.45;42.87;99841.98;1691556;83;21117;-71
2021/06/14 09:13:31;;;;;;;3.75;2.67;;;;;;;28.46;42.39;99847.74;1710244;83;21152;-70
2021/06/14 09:16:14;;;;;;;6.95;3.10;;;;;;;28.07;42.07;99853.20;1710944;83;28158;-72
2021/06/14 09:18:43;;;;;;;5.25;2.92;;;;;;;27.74;44.14;99859.56;1717299;83;21061;-71
2021/06/14 09:21:15;;;;;;;4.72;2.67;;;;;;;27.52;44.58;99859.81;1716882;83;21044;-72
2021/06/14 09:23:47;;;;;;;3.67;2.58;;;;;;;27.45;44.67;99857.95;1717012;83;21127;-73
2021/06/14 09:26:29;;;;;;;3.20;2.30;;;;;;;27.41;45.78;99856.95;1716969;83;21177;-73
2021/06/14 09:29:02;;;;;;;4.65;2.50;;;;;;;27.31;46.25;99856.31;1717002;83;21029;-72
2021/06/14 09:31:37;;;;;;;5.65;2.42;;;;;;;27.21;46.16;99858.34;1717032;82;21093;-72
2021/06/14 09:34:05;;;;;;;4.33;3.27;;;;;;;27.16;46.14;99860.69;1717131;83;21576;-70
2021/06/14 09:36:32;;;;;;;3.70;2.50;;;;;;;27.15;46.71;99863.07;1716998;83;21096;-72
2021/06/14 09:39:15;;;;;;;3.95;2.77;;;;;;;27.13;46.80;99862.39;1717165;83;21170;-70
2021/06/14 09:41:47;;;;;;;4.78;2.47;;;;;;;27.08;46.31;99863.39;1717296;83;22129;-72
2021/06/14 09:44:16;;;;;;;13.22;2.40;;;;;;;27.28;45.22;99859.34;1716793;82;21065;-71
2021/06/14 09:46:44;;;;;;;4.05;2.67;;;;;;;27.56;44.94;99850.83;1715939;83;21045;-72
2021/06/14 09:49:18;;;;;;;4.62;2.80;;;;;;;27.74;43.86;99850.09;1716950;82;21104;-72
2021/06/14 09:51:51;;;;;;;5.35;2.45;;;;;;;27.94;44.70;99857.33;1706518;83;22212;-72
2021/06/14 09:54:34;;;;;;;3.95;2.65;;;;;;;27.83;44.30;99855.84;1717626;83;21034;-71
2021/06/14 09:57:05;;;;;;;4.55;2.60;;;;;;;27.76;44.54;99862.94;1716686;83;21536;-71
2021/06/14 09:59:39;;;;;;;5.72;2.70;;;;;;;27.55;43.57;99867.57;1717864;82;21121;-72
2021/06/14 10:02:18;;;;;;;3.55;2.15;;;;;;;27.44;44.39;99860.34;1717212;82;21069;-70
2021/06/14 10:04:48;;;;;;;6.22;3.92;;;;;;;27.57;42.99;99867.41;1717290;82;21188;-72
2021/06/14 10:07:16;;;;;;;3.92;3.37;;;;;;;27.72;43.71;99854.86;1717554;83;21576;-71
2021/06/14 10:09:45;;;;;;;4.60;2.85;;;;;;;28.00;43.64;99855.79;1717218;82;21092;-72
2021/06/14 10:12:25;;;;;;;7.35;3.33;;;;;;;28.17;42.90;99847.91;1717597;83;21124;-74
2021/06/14 10:15:02;;;;;;;7.87;4.17;;;;;;;28.17;43.47;99857.38;1719575;83;21610;-71
2021/06/14 10:17:36;;;;;;;7.72;2.72;;;;;;;28.27;43.53;99850.38;1719853;82;21165;-72
2021/06/14 10:20:16;;;;;;;3.00;2.40;;;;;;;28.70;43.35;99867.58;1719976;83;21096;-72
2021/06/14 10:22:44;;;;;;;4.87;2.55;;;;;;;28.92;41.71;99862.66;1720019;83;21049;-72
2021/06/14 10:25:14;;;;;;;8.48;2.47;;;;;;;29.16;42.34;99857.55;1719781;83;21190;-71
2021/06/14 10:27:41;;;;;;;5.85;4.10;;;;;;;29.40;41.34;99859.69;1720151;82;21478;-71
2021/06/14 10:30:11;;;;;;;6.85;2.47;;;;;;;29.44;40.74;99859.13;1719464;83;21184;-71
2021/06/14 10:32:39;;;;;;;15.13;8.55;;;;;;;29.60;40.41;99855.39;1716781;83;21113;-72
2021/06/14 10:35:09;;;;;;;9.65;3.27;;;;;;;29.59;40.07;99844.23;1719748;83;21104;-73
2021/06/14 10:37:44;;;;;;;15.53;10.58;;;;;;;29.43;40.15;99853.39;1719814;82;21128;-71
2021/06/14 10:40:14;;;;;;;7.40;4.33;;;;;;;29.24;39.82;99860.69;1719234;83;21182;-72
2021/06/14 10:42:44;;;;;;;3.65;2.20;;;;;;;29.10;40.44;99847.44;1716725;83;21715;-72
2021/06/14 10:45:14;;;;;;;2.42;2.22;;;;;;;29.18;41.74;99857.38;1714828;83;21124;-72
2021/06/14 10:47:42;;;;;;;4.15;2.60;;;;;;;29.10;41.15;99852.02;1718877;82;21103;-73
2021/06/14 10:50:12;;;;;;;3.95;2.33;;;;;;;28.72;40.45;99856.05;1716159;83;21132;-72
2021/06/14 10:52:44;;;;;;;4.83;2.40;;;;;;;28.40;41.64;99853.34;1713249;82;21521;-72
2021/06/14 10:55:17;;;;;;;4.65;2.40;;;;;;;28.62;41.35;99855.78;1711499;83;21149;-72
2021/06/14 10:57:44;;;;;;;4.72;2.35;;;;;;;29.01;40.45;99854.80;1712828;82;21108;-72
2021/06/14 11:00:25;;;;;;;5.12;2.20;;;;;;;29.47;37.99;99848.41;1716551;83;21119;-73
2021/06/14 11:03:01;;;;;;;6.10;2.40;;;;;;;29.19;37.89;99857.70;1717343;83;21120;-71
2021/06/14 11:05:42;;;;;;;4.65;4.00;;;;;;;28.99;38.50;99854.13;1716708;82;21064;-72
2021/06/14 11:08:22;;;;;;;5.12;2.12;;;;;;;29.14;38.12;99843.34;1719738;82;21245;-72
2021/06/14 11:11:03;;;;;;;4.00;2.22;;;;;;;29.40;37.68;99853.77;1715240;82;21026;-72
2021/06/14 11:13:31;;;;;;;4.97;2.47;;;;;;;29.15;38.32;99854.53;1718042;83;22003;-72
2021/06/14 11:16:01;;;;;;;4.90;2.47;;;;;;;28.96;38.97;99853.12;1717799;82;21065;-71
2021/06/14 11:18:32;;;;;;;8.18;2.65;;;;;;;28.97;38.83;99856.17;1718099;82;21092;-72
2021/06/14 11:21:19;;;;;;;3.15;2.30;;;;;;;28.97;39.14;99847.21;1718504;83;21136;-71
2021/06/14 11:23:48;;;;;;;3.62;2.50;;;;;;;29.10;39.76;99852.02;1710270;83;21112;-71
2021/06/14 11:26:29;;;;;;;7.55;2.70;;;;;;;28.88;40.16;99859.15;1714008;83;21112;-73
2021/06/14 11:28:59;;;;;;;4.50;3.85;;;;;;;28.40;41.09;99857.41;1719231;82;21088;-72
2021/06/14 11:31:28;;;;;;;4.47;3.00;;;;;;;28.06;40.42;99857.77;1710191;83;21112;-71
2021/06/14 11:34:02;;;;;;;6.58;4.20;;;;;;;28.02;40.43;99857.30;1710269;83;21053;-71
2021/06/14 11:36:29;;;;;;;4.85;2.52;;;;;;;28.09;40.70;99848.45;1698516;82;21057;-73
2021/06/14 11:38:58;;;;;;;3.62;2.65;;;;;;;28.14;41.15;99852.84;1714893;83;21073;-74
2021/06/14 11:41:33;;;;;;;8.33;2.90;;;;;;;28.29;40.13;99838.86;1718942;82;21683;-73
2021/06/14 11:44:28;;;;;;;3.90;2.67;;;;;;;28.70;40.35;99839.13;1705890;83;21541;-71
2021/06/14 11:47:13;;;;;;;10.63;3.00;;;;;;;28.99;40.08;99847.87;1717373;83;21121;-71
2021/06/14 11:49:41;;;;;;;5.42;3.62;;;;;;;28.96;39.85;99849.58;1714877;82;21062;-72
2021/06/14 11:52:33;;;;;;;8.00;2.85;;;;;;;29.10;38.99;99844.72;1716450;83;21009;-72
2021/06/14 11:55:07;;;;;;;7.08;2.60;;;;;;;29.27;39.53;99840.00;1715706;82;21611;-71
2021/06/14 11:57:39;;;;;;;4.22;2.47;;;;;;;29.33;42.35;99846.02;1714820;83;21126;-71